Time;durP1;ratioP1;P1;durP2;ratioP2;P2;SDS_P1;SDS_P2;PMS_P1;PMS_P2;Temp;Humidity;BMP_temperature;BMP_pressure;BME280_temperature;BME280_humidity;BME280_pressure;Samples;Min_cycle;Max_cycle;Signal;HPM_P1;HPM_P2
2021/09/18 00:00:12;;;;;;;8.63;7.90;;;12.20;99.90;;;;;;5065110;28;20815;-81
2021/09/18 00:02:39;;;;;;;8.83;8.03;;;12.20;99.90;;;;;;5079286;28;20447;-81
2021/09/18 00:05:06;;;;;;;8.70;8.00;;;12.20;99.90;;;;;;5062949;28;20483;-81
2021/09/18 00:07:33;;;;;;;9.83;8.97;;;12.10;99.90;;;;;;5059351;28;20458;-81
2021/09/18 00:10:00;;;;;;;9.23;8.10;;;12.10;99.90;;;;;;5072608;28;20840;-81
2021/09/18 00:12:26;;;;;;;9.53;8.57;;;12.10;99.90;;;;;;5078944;28;20455;-81
2021/09/18 00:14:55;;;;;;;10.53;9.37;;;12.20;99.90;;;;;;5066449;28;20471;-80
2021/09/18 00:17:21;;;;;;;10.37;9.47;;;12.10;99.90;;;;;;5060193;28;20461;-80
2021/09/18 00:19:48;;;;;;;12.47;11.33;;;12.10;99.90;;;;;;5070104;28;20454;-81
2021/09/18 00:22:15;;;;;;;12.93;9.57;;;12.20;99.90;;;;;;5078872;28;20520;-81
2021/09/18 00:24:43;;;;;;;8.87;8.07;;;12.10;99.90;;;;;;5068314;28;20495;-80
2021/09/18 00:27:10;;;;;;;8.90;8.10;;;12.10;99.90;;;;;;5059344;28;20477;-81
2021/09/18 00:29:37;;;;;;;9.27;8.37;;;12.10;99.90;;;;;;5067777;28;20852;-81
2021/09/18 00:32:06;;;;;;;10.37;9.27;;;12.00;99.90;;;;;;5078831;28;20451;-81
2021/09/18 00:34:34;;;;;;;10.67;9.67;;;12.00;99.90;;;;;;5062101;28;20469;-81
2021/09/18 00:37:01;;;;;;;9.53;8.53;;;11.80;99.90;;;;;;5078464;28;20451;-81
2021/09/18 00:39:28;;;;;;;10.00;9.10;;;11.80;99.90;;;;;;5060902;28;20802;-81
2021/09/18 00:41:56;;;;;;;11.10;10.00;;;11.70;99.90;;;;;;5059296;28;20451;-81
2021/09/18 00:44:28;;;;;;;9.53;8.63;;;11.70;99.90;;;;;;5058276;28;20498;-81
2021/09/18 00:46:54;;;;;;;9.33;8.50;;;11.70;99.90;;;;;;5069425;28;20745;-81
2021/09/18 00:49:23;;;;;;;9.93;8.97;;;11.70;99.90;;;;;;5075649;28;20455;-81
2021/09/18 00:51:49;;;;;;;9.17;8.27;;;11.70;99.90;;;;;;5058369;28;20463;-81
2021/09/18 00:54:17;;;;;;;11.73;10.63;;;11.50;99.90;;;;;;5065894;28;20530;-81
2021/09/18 00:56:44;;;;;;;11.27;10.07;;;11.50;99.90;;;;;;5078789;28;20458;-81
2021/09/18 00:59:11;;;;;;;10.17;9.27;;;11.40;99.90;;;;;;5071896;28;20460;-80
2021/09/18 01:01:38;;;;;;;10.07;8.93;;;11.40;99.90;;;;;;5058845;28;20452;-80
2021/09/18 01:04:05;;;;;;;10.00;9.00;;;11.40;99.90;;;;;;5059137;28;20494;-81
2021/09/18 01:06:33;;;;;;;11.43;10.23;;;11.50;99.90;;;;;;5058067;28;20474;-81
2021/09/18 01:09:00;;;;;;;10.10;9.13;;;11.50;99.90;;;;;;5065320;28;20465;-79
2021/09/18 01:11:27;;;;;;;10.33;9.33;;;11.50;99.90;;;;;;5079605;28;20446;-80
2021/09/18 01:13:55;;;;;;;10.70;9.77;;;11.60;99.90;;;;;;5074008;28;20520;-81
2021/09/18 01:16:22;;;;;;;9.27;8.40;;;11.60;99.90;;;;;;5058908;28;20453;-81
2021/09/18 01:18:49;;;;;;;9.93;8.63;;;11.60;99.90;;;;;;5062912;28;20454;-81
2021/09/18 01:21:16;;;;;;;10.90;9.90;;;11.60;99.90;;;;;;5080133;28;20458;-81
2021/09/18 01:23:45;;;;;;;9.80;9.00;;;11.60;99.90;;;;;;5076968;28;20477;-81
2021/09/18 01:26:12;;;;;;;10.03;9.10;;;11.60;99.90;;;;;;5059212;28;20487;-81
2021/09/18 01:28:40;;;;;;;10.63;9.53;;;11.60;99.90;;;;;;5060931;28;20457;-81
2021/09/18 01:31:07;;;;;;;10.67;9.20;;;11.70;99.90;;;;;;5079577;28;20458;-81
2021/09/18 01:33:34;;;;;;;10.50;9.50;;;11.70;99.90;;;;;;5067781;28;20494;-81
2021/09/18 01:36:01;;;;;;;11.37;10.20;;;11.70;99.90;;;;;;5074186;28;20461;-81
2021/09/18 01:38:29;;;;;;;9.43;8.60;;;11.60;99.90;;;;;;5069980;28;20455;-81
2021/09/18 01:40:57;;;;;;;10.30;9.50;;;11.60;99.90;;;;;;5058822;28;20448;-81
2021/09/18 01:43:27;;;;;;;9.63;8.73;;;11.60;99.90;;;;;;5067010;28;20470;-81
2021/09/18 01:45:54;;;;;;;12.30;11.20;;;11.60;99.90;;;;;;5078613;28;20853;-81
2021/09/18 01:48:21;;;;;;;14.30;13.03;;;11.60;99.90;;;;;;5071634;28;20447;-81
2021/09/18 01:50:51;;;;;;;14.10;12.40;;;11.60;99.90;;;;;;5058736;28;20451;-81
2021/09/18 01:53:20;;;;;;;14.70;13.20;;;11.60;99.90;;;;;;5065218;28;20498;-81
2021/09/18 01:55:48;;;;;;;12.70;11.50;;;11.50;99.90;;;;;;5078600;28;20465;-81
2021/09/18 01:58:17;;;;;;;11.63;10.60;;;11.50;99.90;;;;;;5072901;28;20459;-81
2021/09/18 02:00:46;;;;;;;10.37;9.57;;;11.50;99.90;;;;;;5058855;28;20454;-81
2021/09/18 02:03:13;;;;;;;11.07;10.07;;;11.50;99.90;;;;;;5074414;28;20481;-81
2021/09/18 02:05:40;;;;;;;10.70;9.37;;;11.50;99.90;;;;;;5083419;28;20482;-80
2021/09/18 02:08:07;;;;;;;9.97;8.97;;;11.40;99.90;;;;;;5091338;28;20450;-81
2021/09/18 02:10:34;;;;;;;10.50;8.67;;;11.40;99.90;;;;;;5093572;28;20454;-81
2021/09/18 02:13:03;;;;;;;10.30;9.33;;;11.40;99.90;;;;;;5073777;28;20458;-81
2021/09/18 02:15:31;;;;;;;9.30;8.40;;;11.40;99.90;;;;;;5061979;28;20446;-81
2021/09/18 02:17:58;;;;;;;10.27;9.48;;;11.40;99.90;;;;;;5074538;28;20457;-81
2021/09/18 02:20:27;;;;;;;9.90;9.00;;;11.40;99.90;;;;;;5082626;28;20214;-81
2021/09/18 02:22:55;;;;;;;9.40;8.50;;;11.30;99.90;;;;;;5070446;28;20493;-82
2021/09/18 02:25:22;;;;;;;9.50;8.70;;;11.30;99.90;;;;;;5061017;28;21020;-81
2021/09/18 02:27:49;;;;;;;10.45;8.82;;;11.30;99.90;;;;;;5072376;28;20458;-81
2021/09/18 02:30:18;;;;;;;9.63;8.73;;;11.30;99.90;;;;;;5082167;28;20215;-81
2021/09/18 02:32:49;;;;;;;11.93;10.60;;;11.30;99.90;;;;;;5073672;28;20200;-81
2021/09/18 02:35:18;;;;;;;10.67;9.60;;;11.30;99.90;;;;;;5075672;28;20449;-81
2021/09/18 02:37:48;;;;;;;8.77;8.07;;;11.30;99.90;;;;;;5082034;28;20451;-81
2021/09/18 02:40:16;;;;;;;10.20;9.10;;;11.30;99.90;;;;;;5068495;28;20446;-81
2021/09/18 02:42:46;;;;;;;8.10;7.40;;;11.30;99.90;;;;;;5061587;28;20458;-81
2021/09/18 02:45:13;;;;;;;10.13;8.97;;;11.20;99.90;;;;;;5074297;28;20509;-81
2021/09/18 02:47:41;;;;;;;13.37;10.10;;;11.20;99.90;;;;;;5081666;28;20445;-81
2021/09/18 02:50:11;;;;;;;9.07;8.20;;;11.20;99.90;;;;;;5070213;28;20454;-81
2021/09/18 02:52:38;;;;;;;10.73;9.77;;;11.20;99.90;;;;;;5061963;28;20458;-81
2021/09/18 02:55:05;;;;;;;10.17;9.27;;;11.20;99.90;;;;;;5072604;28;20477;-81
2021/09/18 02:57:32;;;;;;;11.40;10.30;;;11.20;99.90;;;;;;5080650;28;20465;-81
2021/09/18 02:59:59;;;;;;;12.03;9.47;;;11.20;99.90;;;;;;5080561;28;20450;-81
2021/09/18 03:02:26;;;;;;;9.17;8.27;;;11.10;99.90;;;;;;5073089;28;20461;-83
2021/09/18 03:04:53;;;;;;;11.13;10.00;;;11.10;99.90;;;;;;5062491;28;20524;-82
2021/09/18 03:07:21;;;;;;;11.03;10.00;;;11.10;99.90;;;;;;5070518;28;20449;-82
2021/09/18 03:09:47;;;;;;;13.10;11.80;;;11.10;99.90;;;;;;5080435;28;20964;-82
2021/09/18 03:12:14;;;;;;;11.07;10.17;;;11.10;99.90;;;;;;5083283;28;20456;-82
2021/09/18 03:14:41;;;;;;;11.40;10.20;;;11.10;99.90;;;;;;5079162;28;20998;-80
2021/09/18 03:17:08;;;;;;;11.27;10.27;;;11.10;99.90;;;;;;5059598;28;20455;-80
2021/09/18 03:19:35;;;;;;;10.60;9.60;;;11.10;99.90;;;;;;5061234;28;20454;-80
2021/09/18 03:22:01;;;;;;;11.52;9.63;;;11.10;99.90;;;;;;5080126;28;20470;-80
2021/09/18 03:24:30;;;;;;;9.77;8.83;;;11.00;99.90;;;;;;5071698;28;20219;-80
2021/09/18 03:26:56;;;;;;;8.70;7.87;;;11.00;99.90;;;;;;5060172;28;20453;-80
2021/09/18 03:29:24;;;;;;;12.13;10.93;;;11.00;99.90;;;;;;5067014;28;20453;-80
2021/09/18 03:31:51;;;;;;;11.67;8.83;;;11.00;99.90;;;;;;5080466;28;20462;-80
2021/09/18 03:34:18;;;;;;;10.82;9.65;;;11.00;99.90;;;;;;5073908;28;20473;-80
2021/09/18 03:36:44;;;;;;;10.75;9.65;;;10.90;99.90;;;;;;5060393;28;20191;-80
2021/09/18 03:39:11;;;;;;;11.37;10.17;;;10.90;99.90;;;;;;5079981;28;20218;-80
2021/09/18 03:41:39;;;;;;;13.57;10.80;;;10.90;99.90;;;;;;5065479;28;20457;-80
2021/09/18 03:44:06;;;;;;;10.17;9.20;;;10.90;99.90;;;;;;5059809;28;20477;-81
2021/09/18 03:46:33;;;;;;;11.30;10.30;;;10.90;99.90;;;;;;5072105;28;20507;-81
2021/09/18 03:48:59;;;;;;;10.85;9.85;;;10.90;99.90;;;;;;5079746;28;20209;-80
2021/09/18 03:51:26;;;;;;;12.30;10.43;;;10.90;99.90;;;;;;5067236;28;20657;-81
2021/09/18 03:53:53;;;;;;;10.45;9.48;;;10.90;99.90;;;;;;5059803;28;20468;-80
2021/09/18 03:56:20;;;;;;;10.55;9.43;;;10.90;99.90;;;;;;5069857;28;20218;-81
2021/09/18 03:58:48;;;;;;;10.40;9.35;;;10.90;99.90;;;;;;5079918;28;20210;-80
2021/09/18 04:01:14;;;;;;;11.70;9.65;;;10.80;99.90;;;;;;5070324;28;20208;-81
2021/09/18 04:03:41;;;;;;;10.45;9.52;;;10.80;99.90;;;;;;5059168;28;20242;-81
2021/09/18 04:06:08;;;;;;;12.00;10.77;;;10.80;99.90;;;;;;5067370;28;20230;-80
2021/09/18 04:08:35;;;;;;;12.50;11.40;;;10.80;99.90;;;;;;5080245;28;20454;-80
2021/09/18 04:11:01;;;;;;;10.97;9.97;;;10.80;99.90;;;;;;5062603;28;20675;-80
2021/09/18 04:13:28;;;;;;;13.87;11.00;;;10.80;99.90;;;;;;5060025;28;20474;-80
2021/09/18 04:15:56;;;;;;;13.27;11.33;;;10.80;99.90;;;;;;5075086;28;20459;-80
2021/09/18 04:18:23;;;;;;;14.13;11.83;;;10.80;99.90;;;;;;5079236;28;20460;-80
2021/09/18 04:20:50;;;;;;;13.60;12.30;;;10.80;99.90;;;;;;5064821;28;20451;-80
2021/09/18 04:23:16;;;;;;;13.13;11.30;;;10.80;99.90;;;;;;5060723;28;20477;-80
2021/09/18 04:25:43;;;;;;;11.30;10.30;;;10.80;99.90;;;;;;5078057;28;20231;-79
2021/09/18 04:28:10;;;;;;;13.57;11.90;;;10.80;99.90;;;;;;5081260;28;20450;-80
2021/09/18 04:30:37;;;;;;;13.53;11.70;;;10.80;99.90;;;;;;5067860;28;20453;-81
2021/09/18 04:33:05;;;;;;;12.20;11.10;;;10.70;99.90;;;;;;5066398;28;20477;-80
2021/09/18 04:35:31;;;;;;;14.10;12.17;;;10.80;99.90;;;;;;5074118;28;20447;-80
2021/09/18 04:37:58;;;;;;;15.23;13.73;;;10.80;99.90;;;;;;5059028;28;20461;-80
2021/09/18 04:40:25;;;;;;;15.77;13.63;;;10.80;99.90;;;;;;5060177;28;20450;-81
2021/09/18 04:42:52;;;;;;;16.10;13.30;;;10.80;99.90;;;;;;5059695;28;20459;-80
2021/09/18 04:45:19;;;;;;;14.57;13.03;;;10.80;99.90;;;;;;5077788;28;20481;-81
2021/09/18 04:47:45;;;;;;;16.97;13.50;;;10.80;99.90;;;;;;5079458;28;20456;-80
2021/09/18 04:50:14;;;;;;;14.93;13.52;;;10.80;99.90;;;;;;5061537;28;20454;-80
2021/09/18 04:52:40;;;;;;;14.90;13.30;;;10.80;99.90;;;;;;5058723;28;20212;-81
2021/09/18 04:55:08;;;;;;;14.23;12.80;;;10.80;99.90;;;;;;5075118;28;20477;-81
2021/09/18 04:57:35;;;;;;;14.95;13.55;;;10.80;99.90;;;;;;5079002;28;20210;-80
2021/09/18 05:00:01;;;;;;;15.05;13.55;;;10.80;99.90;;;;;;5064648;28;20208;-81
2021/09/18 05:02:28;;;;;;;14.30;12.83;;;10.80;99.90;;;;;;5063198;28;20219;-81
2021/09/18 05:04:55;;;;;;;13.80;12.50;;;10.80;99.90;;;;;;5079327;28;20476;-80
2021/09/18 05:07:23;;;;;;;15.65;14.10;;;10.80;99.90;;;;;;5075709;28;20239;-81
2021/09/18 05:09:50;;;;;;;16.00;14.40;;;10.80;99.90;;;;;;5059000;28;20222;-80
2021/09/18 05:12:16;;;;;;;15.18;13.57;;;10.80;99.90;;;;;;5060128;28;20205;-81
2021/09/18 05:14:43;;;;;;;15.97;13.33;;;10.80;99.90;;;;;;5079176;28;20226;-81
2021/09/18 05:17:10;;;;;;;13.00;11.73;;;10.80;99.90;;;;;;5078543;28;20449;-80
2021/09/18 05:19:37;;;;;;;12.43;11.00;;;10.80;99.90;;;;;;5058487;28;20454;-81
2021/09/18 05:22:04;;;;;;;11.50;10.50;;;10.80;99.90;;;;;;5058280;28;20449;-80
2021/09/18 05:24:32;;;;;;;14.03;12.47;;;10.80;99.90;;;;;;5076747;28;20974;-80
2021/09/18 05:26:58;;;;;;;13.07;11.88;;;10.80;99.90;;;;;;5060141;28;20483;-81
2021/09/18 05:29:25;;;;;;;11.70;10.50;;;10.90;99.90;;;;;;5073389;28;20211;-81
2021/09/18 05:31:52;;;;;;;13.70;11.93;;;10.90;99.90;;;;;;5077612;28;20204;-80
2021/09/18 05:34:19;;;;;;;12.80;11.50;;;10.90;99.90;;;;;;5078733;28;20485;-81
2021/09/18 05:36:46;;;;;;;13.60;12.30;;;10.90;99.90;;;;;;5064725;28;20453;-81
2021/09/18 05:39:12;;;;;;;14.10;12.75;;;10.90;99.90;;;;;;5076610;28;20461;-80
2021/09/18 05:41:41;;;;;;;13.03;11.63;;;10.90;99.90;;;;;;5070333;28;20204;-80
2021/09/18 05:44:08;;;;;;;11.43;10.23;;;10.90;99.90;;;;;;5063373;28;20481;-80
2021/09/18 05:46:34;;;;;;;14.67;12.33;;;10.90;99.90;;;;;;5082278;28;20477;-80
2021/09/18 05:49:01;;;;;;;12.20;11.17;;;11.00;99.90;;;;;;5082338;28;20460;-81
2021/09/18 05:51:29;;;;;;;13.60;12.20;;;11.00;99.90;;;;;;5082181;28;20456;-80
2021/09/18 05:53:56;;;;;;;16.70;13.27;;;11.00;99.90;;;;;;5082374;28;20480;-82
2021/09/18 05:56:23;;;;;;;15.20;13.90;;;11.00;99.90;;;;;;5061199;28;20465;-82
2021/09/18 05:58:51;;;;;;;14.30;12.70;;;11.10;99.90;;;;;;5067595;28;20458;-80
2021/09/18 06:01:18;;;;;;;14.83;13.33;;;11.10;99.90;;;;;;5085821;28;20457;-80
2021/09/18 06:03:44;;;;;;;16.27;14.70;;;11.10;99.90;;;;;;5087331;28;20473;-80
2021/09/18 06:06:11;;;;;;;15.90;14.10;;;11.20;99.90;;;;;;5067659;28;20489;-81
2021/09/18 06:08:38;;;;;;;16.60;14.90;;;11.20;99.90;;;;;;5060210;28;20442;-81
2021/09/18 06:11:04;;;;;;;15.27;13.73;;;11.20;99.90;;;;;;5076091;28;20465;-82
2021/09/18 06:13:31;;;;;;;14.17;12.33;;;11.30;99.90;;;;;;5076052;28;20490;-82
2021/09/18 06:15:59;;;;;;;15.63;14.00;;;11.30;99.90;;;;;;5060896;28;20447;-83
2021/09/18 06:18:27;;;;;;;15.30;13.20;;;11.40;99.90;;;;;;5063569;28;20463;-83
2021/09/18 06:20:53;;;;;;;14.53;13.03;;;11.50;99.90;;;;;;5079263;28;20866;-81
2021/09/18 06:23:20;;;;;;;17.63;15.30;;;11.50;99.90;;;;;;5078619;28;20477;-83
2021/09/18 06:25:47;;;;;;;16.50;14.73;;;11.50;99.90;;;;;;5079257;28;20485;-80
2021/09/18 06:28:14;;;;;;;15.20;13.37;;;11.70;99.90;;;;;;5078490;28;20454;-81
2021/09/18 06:30:41;;;;;;;18.90;14.60;;;11.70;99.90;;;;;;5059647;28;20459;-81
2021/09/18 06:33:10;;;;;;;15.90;14.13;;;11.80;99.90;;;;;;5059425;28;20479;-83
2021/09/18 06:35:36;;;;;;;16.13;14.43;;;11.80;99.90;;;;;;5060082;28;20452;-82
2021/09/18 06:38:03;;;;;;;17.53;14.93;;;11.90;99.90;;;;;;5059790;28;20784;-83
2021/09/18 06:40:30;;;;;;;16.40;14.80;;;11.90;99.90;;;;;;5075603;28;20450;-83
2021/09/18 06:42:57;;;;;;;16.10;13.50;;;12.00;99.90;;;;;;5075443;28;20939;-82
2021/09/18 06:45:24;;;;;;;16.97;15.37;;;11.90;99.90;;;;;;5087645;28;20458;-82
2021/09/18 06:47:50;;;;;;;21.00;15.10;;;12.00;99.90;;;;;;5074281;28;20506;-83
2021/09/18 06:50:18;;;;;;;16.63;14.93;;;12.10;99.90;;;;;;5065733;28;20916;-83
2021/09/18 06:52:45;;;;;;;15.87;14.17;;;12.10;99.90;;;;;;5070095;28;20455;-83
2021/09/18 06:55:12;;;;;;;17.13;15.30;;;12.20;99.90;;;;;;5078030;28;20463;-82
2021/09/18 06:57:39;;;;;;;18.43;13.57;;;12.20;99.90;;;;;;5038506;28;20453;-82
2021/09/18 07:00:08;;;;;;;16.40;14.70;;;12.30;99.90;;;;;;5038594;28;20823;-84
2021/09/18 07:02:34;;;;;;;15.33;13.73;;;12.40;99.90;;;;;;5077520;28;20538;-83
2021/09/18 07:05:01;;;;;;;15.60;14.10;;;12.50;99.90;;;;;;5061861;28;20479;-83
2021/09/18 07:07:29;;;;;;;14.83;13.17;;;12.60;99.90;;;;;;5058653;28;20488;-82
2021/09/18 07:09:57;;;;;;;14.87;13.37;;;12.70;99.90;;;;;;5075764;28;20459;-81
2021/09/18 07:12:23;;;;;;;15.63;13.93;;;12.80;99.90;;;;;;5077738;28;20936;-82
2021/09/18 07:14:50;;;;;;;17.10;13.90;;;12.80;99.90;;;;;;5079145;28;20987;-82
2021/09/18 07:17:17;;;;;;;15.27;13.67;;;12.90;99.90;;;;;;5070361;28;20454;-82
2021/09/18 07:19:44;;;;;;;15.30;13.30;;;13.00;99.90;;;;;;5059173;28;20447;-82
2021/09/18 07:22:10;;;;;;;14.90;13.30;;;13.10;99.90;;;;;;5066376;28;20450;-82
2021/09/18 07:24:38;;;;;;;14.70;13.20;;;13.20;99.90;;;;;;5079679;28;20477;-82
2021/09/18 07:27:06;;;;;;;14.20;12.77;;;13.30;99.90;;;;;;5072613;28;21012;-82
2021/09/18 07:29:32;;;;;;;14.07;12.70;;;13.40;99.90;;;;;;5059492;28;20456;-82
2021/09/18 07:31:59;;;;;;;16.43;14.30;;;13.50;99.90;;;;;;5063988;28;20461;-82
2021/09/18 07:34:26;;;;;;;15.00;13.67;;;13.60;99.90;;;;;;5080079;28;20474;-83
2021/09/18 07:36:53;;;;;;;13.90;12.43;;;13.70;99.90;;;;;;5076100;28;20463;-83
2021/09/18 07:39:20;;;;;;;13.70;12.30;;;13.80;99.90;;;;;;5059314;28;20802;-83
2021/09/18 07:41:48;;;;;;;16.30;12.90;;;14.00;99.90;;;;;;5070300;28;20486;-83
2021/09/18 07:44:15;;;;;;;14.70;13.13;;;14.10;99.90;;;;;;5069693;28;20479;-83
2021/09/18 07:46:42;;;;;;;12.70;11.43;;;14.10;99.90;;;;;;5058075;28;20496;-83
2021/09/18 07:49:08;;;;;;;13.47;11.53;;;14.30;99.90;;;;;;5064478;28;20448;-83
2021/09/18 07:51:35;;;;;;;14.67;13.23;;;14.40;99.90;;;;;;5077154;28;20451;-82
2021/09/18 07:54:02;;;;;;;14.50;13.20;;;14.40;99.90;;;;;;5067468;28;20472;-83
2021/09/18 07:56:28;;;;;;;14.17;12.87;;;14.60;99.90;;;;;;5058856;28;20455;-82
2021/09/18 07:58:57;;;;;;;14.93;11.87;;;14.60;99.90;;;;;;5058832;28;20475;-83
2021/09/18 08:01:27;;;;;;;14.53;11.27;;;14.70;99.90;;;;;;5062624;28;20451;-82
2021/09/18 08:03:58;;;;;;;13.10;11.90;;;14.90;99.90;;;;;;5065463;28;20640;-83
2021/09/18 08:06:25;;;;;;;11.63;10.53;;;15.00;99.90;;;;;;5061162;28;20530;-83
2021/09/18 08:08:52;;;;;;;14.00;12.80;;;15.00;99.90;;;;;;5059520;28;20480;-83
2021/09/18 08:11:19;;;;;;;11.83;10.70;;;15.20;99.90;;;;;;5059754;28;20827;-82
2021/09/18 08:13:46;;;;;;;11.40;10.40;;;15.30;99.90;;;;;;5059308;28;20476;-83
2021/09/18 08:16:16;;;;;;;12.10;10.97;;;15.30;99.90;;;;;;5059088;28;20436;-83
2021/09/18 08:18:43;;;;;;;11.33;10.23;;;15.50;99.90;;;;;;5059318;28;20456;-83
2021/09/18 08:21:11;;;;;;;14.90;10.50;;;15.60;99.90;;;;;;5055558;28;20436;-82
2021/09/18 08:23:38;;;;;;;11.40;10.40;;;15.70;99.90;;;;;;5060937;28;20554;-83
2021/09/18 08:26:04;;;;;;;10.80;9.70;;;15.90;99.90;;;;;;5056313;28;20436;-82
2021/09/18 08:28:31;;;;;;;13.33;12.20;;;16.00;99.90;;;;;;5060042;28;20554;-83
2021/09/18 08:30:58;;;;;;;11.07;9.97;;;16.10;99.90;;;;;;5058870;28;20929;-83
2021/09/18 08:33:26;;;;;;;13.47;10.83;;;16.20;99.90;;;;;;5056770;28;20490;-83
2021/09/18 08:35:53;;;;;;;10.87;9.87;;;16.30;99.90;;;;;;5058954;28;20444;-82
2021/09/18 08:38:20;;;;;;;9.70;8.90;;;16.40;99.90;;;;;;5059632;28;20511;-83
2021/09/18 08:40:48;;;;;;;9.40;8.60;;;16.40;99.90;;;;;;5061743;28;20468;-81
2021/09/18 08:43:15;;;;;;;10.10;9.03;;;16.60;99.90;;;;;;5064498;28;20483;-82
2021/09/18 08:45:42;;;;;;;9.90;9.00;;;16.70;99.90;;;;;;5063877;28;20456;-83
2021/09/18 08:48:09;;;;;;;10.10;9.00;;;16.70;99.90;;;;;;5062229;28;20482;-82
2021/09/18 08:50:38;;;;;;;9.53;8.73;;;16.90;99.90;;;;;;5063120;28;20449;-83
2021/09/18 08:53:05;;;;;;;9.20;8.33;;;17.00;99.90;;;;;;5072864;28;20453;-82
2021/09/18 08:55:32;;;;;;;9.87;8.90;;;17.10;99.90;;;;;;5079769;28;20452;-85
2021/09/18 08:57:59;;;;;;;9.17;8.30;;;17.20;99.90;;;;;;5079550;28;20469;-83
2021/09/18 09:00:44;;;;;;;9.07;8.20;;;17.30;99.90;;;;;;5079916;28;20455;-84
2021/09/18 09:03:12;;;;;;;8.80;8.03;;;17.40;99.90;;;;;;5068742;28;20486;-85
2021/09/18 09:05:42;;;;;;;7.63;6.97;;;17.50;99.90;;;;;;5059308;28;20451;-84
2021/09/18 09:08:10;;;;;;;8.90;8.10;;;17.60;99.90;;;;;;5069226;28;20476;-84
2021/09/18 09:10:39;;;;;;;8.83;8.03;;;17.60;99.90;;;;;;5081483;28;20458;-83
2021/09/18 09:13:06;;;;;;;8.50;7.63;;;17.70;99.90;;;;;;5073518;28;20465;-85
2021/09/18 09:15:36;;;;;;;9.73;8.40;;;17.80;99.90;;;;;;5061525;28;20441;-83
2021/09/18 09:18:17;;;;;;;8.80;7.40;;;17.80;99.90;;;;;;5071359;28;20449;-82
2021/09/18 09:20:48;;;;;;;7.90;7.30;;;17.90;99.90;;;;;;5081545;28;20472;-83
2021/09/18 09:23:21;;;;;;;6.77;6.17;;;18.00;99.90;;;;;;5069788;28;20844;-86
2021/09/18 09:25:50;;;;;;;7.73;7.13;;;18.10;99.90;;;;;;5064340;28;20451;-78
2021/09/18 09:28:26;;;;;;;7.20;6.60;;;18.20;99.90;;;;;;5076807;28;20482;-83
2021/09/18 09:30:55;;;;;;;7.30;6.60;;;18.30;99.90;;;;;;5072228;28;20545;-83
2021/09/18 09:33:22;;;;;;;7.17;6.47;;;18.30;99.90;;;;;;5057916;28;20475;-82
2021/09/18 09:35:50;;;;;;;7.67;6.97;;;18.40;99.90;;;;;;5062441;28;20450;-82
2021/09/18 09:38:17;;;;;;;8.17;7.40;;;18.50;99.90;;;;;;5078151;28;20447;-81
2021/09/18 09:40:45;;;;;;;6.73;6.23;;;18.60;99.90;;;;;;5074320;28;20454;-81
2021/09/18 09:43:14;;;;;;;7.20;6.60;;;18.70;99.90;;;;;;5057365;28;20475;-80
2021/09/18 09:45:42;;;;;;;6.17;5.57;;;18.80;99.90;;;;;;5059805;28;20455;-80
2021/09/18 09:48:11;;;;;;;5.23;4.80;;;18.90;99.90;;;;;;5077689;28;20503;-80
2021/09/18 09:50:41;;;;;;;8.10;7.40;;;18.90;99.90;;;;;;5071494;28;20450;-80
2021/09/18 09:53:23;;;;;;;7.17;6.47;;;19.00;99.90;;;;;;5056559;28;20458;-79
2021/09/18 09:55:50;;;;;;;8.03;5.40;;;19.10;99.90;;;;;;5055546;28;20528;-79
2021/09/18 09:58:17;;;;;;;6.00;5.60;;;19.20;99.90;;;;;;5056586;28;20455;-80
2021/09/18 10:00:49;;;;;;;4.73;4.33;;;19.20;99.90;;;;;;5058831;28;20474;-80
2021/09/18 10:03:19;;;;;;;5.20;4.40;;;19.30;99.00;;;;;;5075207;28;20482;-81
2021/09/18 10:05:46;;;;;;;4.90;4.33;;;19.40;99.10;;;;;;5075186;28;20447;-81
2021/09/18 10:08:19;;;;;;;3.73;3.53;;;19.50;99.20;;;;;;5056323;28;20528;-81
2021/09/18 10:10:47;;;;;;;4.23;3.83;;;19.70;99.50;;;;;;5056907;28;20458;-81
2021/09/18 10:13:15;;;;;;;2.53;2.30;;;19.70;97.50;;;;;;5077185;28;20581;-81
2021/09/18 10:15:44;;;;;;;2.73;2.53;;;19.80;97.30;;;;;;5076960;28;20966;-81
2021/09/18 10:18:12;;;;;;;2.30;2.20;;;19.90;96.80;;;;;;5038091;28;20450;-81
2021/09/18 10:23:27;;;;;;;2.37;2.23;;;20.10;97.40;;;;;;5077421;28;20496;-81
2021/09/18 10:25:56;;;;;;;2.10;2.00;;;20.30;97.00;;;;;;5060582;28;20451;-81
2021/09/18 10:28:25;;;;;;;2.40;2.20;;;20.50;95.90;;;;;;5060571;28;20488;-81
2021/09/18 10:30:54;;;;;;;2.97;2.77;;;20.70;96.50;;;;;;5077159;28;20457;-82
2021/09/18 10:33:31;;;;;;;2.70;2.50;;;20.90;94.50;;;;;;5081943;28;20722;-83
2021/09/18 10:36:00;;;;;;;2.63;2.53;;;21.10;95.10;;;;;;5064069;28;20452;-83
2021/09/18 10:38:33;;;;;;;2.73;2.50;;;21.30;95.20;;;;;;5061835;28;20449;-82
2021/09/18 10:41:04;;;;;;;2.50;2.10;;;21.50;95.20;;;;;;5062719;28;20457;-82
2021/09/18 10:43:33;;;;;;;3.60;2.10;;;21.70;93.70;;;;;;5061956;28;20480;-83
2021/09/18 10:46:01;;;;;;;2.10;2.00;;;21.90;92.70;;;;;;5062175;28;20453;-83
2021/09/18 10:48:40;;;;;;;2.90;2.17;;;22.10;93.40;;;;;;5060195;28;20859;-81
2021/09/18 10:51:08;;;;;;;2.23;2.13;;;22.30;91.30;;;;;;5076640;28;20461;-82
2021/09/18 10:54:07;;;;;;;2.77;1.97;;;22.50;90.40;;;;;;5080145;28;20476;-83
2021/09/18 10:57:05;;;;;;;3.43;2.10;;;22.80;90.60;;;;;;5050604;28;20467;-82
2021/09/18 10:59:50;;;;;;;2.10;2.00;;;23.30;90.00;;;;;;5062747;28;20444;-82
2021/09/18 11:02:42;;;;;;;3.57;2.17;;;23.90;87.50;;;;;;5081750;28;20443;-82
2021/09/18 11:05:10;;;;;;;3.07;2.87;;;24.60;88.60;;;;;;5041090;28;20477;-82
2021/09/18 11:07:44;;;;;;;2.17;1.97;;;25.30;84.80;;;;;;5043983;28;20548;-82
2021/09/18 11:10:13;;;;;;;3.60;2.10;;;26.00;85.50;;;;;;5072201;28;20865;-83
2021/09/18 11:12:42;;;;;;;3.50;2.00;;;26.40;81.10;;;;;;5062542;28;20493;-82
2021/09/18 11:15:11;;;;;;;2.40;2.30;;;26.90;76.10;;;;;;5073217;28;20483;-82
2021/09/18 11:17:44;;;;;;;2.60;2.00;;;27.40;72.20;;;;;;5085011;28;20451;-83
2021/09/18 11:20:15;;;;;;;3.20;3.00;;;27.90;72.90;;;;;;5070158;28;20950;-82
2021/09/18 11:22:42;;;;;;;2.53;2.33;;;28.30;68.40;;;;;;5060785;28;20446;-81
2021/09/18 11:25:31;;;;;;;4.00;3.70;;;28.60;68.20;;;;;;5070201;28;21001;-83
2021/09/18 11:28:02;;;;;;;2.80;2.60;;;28.80;68.20;;;;;;5080504;28;20493;-82
2021/09/18 11:30:39;;;;;;;2.93;2.33;;;29.10;68.90;;;;;;5066836;28;20549;-81
2021/09/18 11:33:06;;;;;;;2.70;2.30;;;29.60;68.40;;;;;;5059457;28;20450;-81
2021/09/18 11:35:33;;;;;;;3.00;2.80;;;29.80;63.50;;;;;;5071378;28;20458;-83
2021/09/18 11:38:01;;;;;;;2.43;2.20;;;30.30;61.20;;;;;;5079254;28;20443;-82
2021/09/18 11:40:29;;;;;;;2.80;2.60;;;30.60;59.90;;;;;;5073129;28;20460;-83
2021/09/18 11:42:57;;;;;;;2.20;2.10;;;30.80;61.40;;;;;;5070694;28;20517;-82
2021/09/18 11:45:25;;;;;;;2.10;1.90;;;31.10;59.20;;;;;;5072499;28;20458;-84
2021/09/18 11:47:56;;;;;;;2.17;2.07;;;31.20;57.50;;;;;;5059921;28;20492;-84
2021/09/18 11:50:26;;;;;;;2.03;1.90;;;31.30;55.20;;;;;;5079227;28;20449;-83
2021/09/18 11:52:54;;;;;;;3.10;2.90;;;31.60;56.30;;;;;;5079756;28;20462;-84
2021/09/18 11:55:40;;;;;;;2.77;2.57;;;31.90;54.80;;;;;;5059799;28;20451;-80
2021/09/18 11:58:13;;;;;;;2.77;2.57;;;32.20;54.80;;;;;;5064193;28;20456;-83
2021/09/18 12:00:46;;;;;;;2.57;2.37;;;32.60;53.60;;;;;;5079088;28;20446;-82
2021/09/18 12:03:14;;;;;;;2.63;2.50;;;33.00;54.50;;;;;;5076758;28;20465;-81
2021/09/18 12:05:40;;;;;;;3.17;2.97;;;33.50;51.80;;;;;;5078419;28;20449;-83
2021/09/18 12:08:09;;;;;;;2.80;2.60;;;33.70;48.90;;;;;;5073021;28;20546;-83
2021/09/18 12:10:37;;;;;;;2.67;2.57;;;33.20;48.80;;;;;;5078178;28;20461;-82
2021/09/18 12:13:08;;;;;;;2.50;2.40;;;33.10;48.60;;;;;;5077738;28;20451;-85
2021/09/18 12:15:49;;;;;;;2.70;2.50;;;33.30;49.40;;;;;;5069950;28;20493;-86
2021/09/18 12:18:26;;;;;;;2.90;2.80;;;33.50;49.70;;;;;;5056813;28;20454;-85
2021/09/18 12:21:01;;;;;;;2.63;2.43;;;33.80;47.80;;;;;;5067853;28;20451;-83
2021/09/18 12:23:28;;;;;;;3.40;3.10;;;34.10;48.40;;;;;;5076851;28;20481;-83
2021/09/18 12:25:59;;;;;;;3.60;3.30;;;34.10;49.00;;;;;;5067046;28;20455;-84
2021/09/18 12:28:26;;;;;;;3.77;3.47;;;34.40;49.00;;;;;;5058388;28;20484;-84
2021/09/18 12:30:53;;;;;;;4.20;3.97;;;34.90;48.80;;;;;;5066951;28;20807;-84
2021/09/18 12:33:28;;;;;;;3.60;3.30;;;35.20;45.00;;;;;;5076390;28;20475;-84
2021/09/18 12:36:04;;;;;;;3.27;2.97;;;35.30;46.60;;;;;;5076304;28;20446;-85
2021/09/18 12:38:31;;;;;;;3.73;3.53;;;35.40;45.20;;;;;;5078740;28;20454;-85
2021/09/18 12:41:04;;;;;;;3.10;2.90;;;35.50;45.20;;;;;;5078770;28;20447;-85
2021/09/18 12:43:31;;;;;;;3.40;3.20;;;36.00;45.40;;;;;;5079763;28;20477;-85